createdAt,value
2022-10-25T00:00:46.177Z,0.00
2022-10-25T00:01:46.338Z,0.00
2022-10-25T00:02:46.194Z,0.00
2022-10-25T00:03:46.112Z,0.00
2022-10-25T00:04:46.103Z,0.00
2022-10-25T00:05:46.114Z,0.00
2022-10-25T00:06:46.085Z,0.00
2022-10-25T00:07:46.474Z,0.00
2022-10-25T00:08:46.058Z,0.00
2022-10-25T00:09:46.043Z,0.00
2022-10-25T00:10:46.056Z,0.00
2022-10-25T00:11:46.024Z,0.00
2022-10-25T00:12:46.033Z,0.00
2022-10-25T00:13:46.003Z,0.00
2022-10-25T00:14:45.997Z,0.00
2022-10-25T00:15:45.982Z,0.00
2022-10-25T00:16:45.994Z,0.00
2022-10-25T00:17:46.064Z,0.00
2022-10-25T00:18:45.946Z,0.00
2022-10-25T00:19:45.935Z,0.00
2022-10-25T00:20:45.926Z,0.00
2022-10-25T00:21:45.934Z,0.00
2022-10-25T00:22:46.193Z,0.00
2022-10-25T00:23:45.897Z,0.00
2022-10-25T00:24:45.887Z,0.00
2022-10-25T00:25:45.876Z,0.00
2022-10-25T00:26:45.885Z,0.00
2022-10-25T00:27:45.847Z,0.00
2022-10-25T00:28:45.844Z,0.00
2022-10-25T00:29:45.830Z,0.00
2022-10-25T00:30:45.821Z,0.00
2022-10-25T00:31:45.836Z,0.00
2022-10-25T00:32:46.109Z,0.00
2022-10-25T00:33:45.786Z,0.00
2022-10-25T00:34:45.776Z,0.00
2022-10-25T00:35:45.758Z,0.00
2022-10-25T00:36:45.757Z,0.00
2022-10-25T00:37:45.779Z,0.00
2022-10-25T00:38:45.728Z,0.00
2022-10-25T00:39:45.736Z,0.00
2022-10-25T00:40:45.710Z,0.00
2022-10-25T00:41:45.738Z,0.00
2022-10-25T00:42:45.969Z,0.00
2022-10-25T00:43:45.679Z,0.00
2022-10-25T00:44:45.670Z,0.00
2022-10-25T00:45:45.650Z,0.00
2022-10-25T00:46:45.640Z,0.00
2022-10-25T00:47:46.076Z,0.00
2022-10-25T00:48:45.622Z,0.00
2022-10-25T00:49:45.611Z,0.00
2022-10-25T00:50:45.599Z,0.00
2022-10-25T00:51:45.634Z,0.00
2022-10-25T00:52:45.571Z,0.00
2022-10-25T00:53:45.571Z,0.00
2022-10-25T00:54:45.580Z,0.00
2022-10-25T00:55:45.567Z,0.00
2022-10-25T00:56:45.529Z,0.00
2022-10-25T00:57:52.595Z,0.00
2022-10-25T00:58:45.515Z,0.00
2022-10-25T00:59:45.502Z,0.00
2022-10-25T01:00:45.487Z,0.00
2022-10-25T01:01:45.586Z,0.00
2022-10-25T01:02:45.651Z,0.00
2022-10-25T01:03:45.458Z,0.00
2022-10-25T01:04:45.449Z,0.00
2022-10-25T01:05:45.459Z,0.00
2022-10-25T01:06:45.425Z,0.00
2022-10-25T01:07:45.748Z,0.00
2022-10-25T01:08:45.408Z,0.00
2022-10-25T01:09:45.396Z,0.00
2022-10-25T01:10:45.392Z,0.00
2022-10-25T01:11:45.409Z,0.00
2022-10-25T01:12:47.512Z,0.00
2022-10-25T01:13:45.356Z,0.00
2022-10-25T01:14:45.350Z,0.00
2022-10-25T01:15:45.337Z,0.00
2022-10-25T01:16:45.319Z,0.00
2022-10-25T01:17:45.327Z,0.00
2022-10-25T01:18:45.297Z,0.00
2022-10-25T01:19:45.309Z,0.00
2022-10-25T01:20:45.267Z,0.00
2022-10-25T01:21:45.271Z,0.00
2022-10-25T01:22:45.614Z,0.00
2022-10-25T01:23:45.247Z,0.00
2022-10-25T01:24:45.229Z,0.00
2022-10-25T01:25:45.239Z,0.00
2022-10-25T01:26:45.211Z,0.00
2022-10-25T01:27:45.304Z,0.00
2022-10-25T01:28:45.189Z,0.00
2022-10-25T01:29:45.179Z,0.00
2022-10-25T01:30:45.169Z,0.00
2022-10-25T01:31:45.150Z,0.00
2022-10-25T01:32:45.635Z,0.00
2022-10-25T01:33:45.132Z,0.00
2022-10-25T01:34:45.120Z,0.00
2022-10-25T01:35:45.110Z,0.00
2022-10-25T01:36:45.101Z,0.00
2022-10-25T01:37:45.350Z,0.00
2022-10-25T01:38:45.072Z,0.00
2022-10-25T01:39:45.076Z,0.00
2022-10-25T01:40:45.055Z,0.00
2022-10-25T01:41:45.051Z,0.00
2022-10-25T01:42:45.031Z,0.00
2022-10-25T01:43:45.050Z,0.00
2022-10-25T01:44:45.011Z,0.00
2022-10-25T01:45:45.011Z,0.00
2022-10-25T01:46:44.991Z,0.00
2022-10-25T01:47:45.233Z,0.00
2022-10-25T01:48:44.964Z,0.00
2022-10-25T01:49:44.982Z,0.00
2022-10-25T01:50:44.943Z,0.00
2022-10-25T01:51:44.941Z,0.00
2022-10-25T01:52:44.954Z,0.00
2022-10-25T01:53:44.963Z,0.00
2022-10-25T01:54:44.904Z,0.00
2022-10-25T01:55:44.895Z,0.00
2022-10-25T01:56:44.884Z,0.00
2022-10-25T01:57:45.190Z,0.00
2022-10-25T01:58:44.856Z,0.00
2022-10-25T01:59:44.875Z,0.00
2022-10-25T02:00:44.894Z,0.00
2022-10-25T02:02:45.089Z,0.00
2022-10-25T02:03:44.806Z,0.00
2022-10-25T02:04:44.793Z,0.00
2022-10-25T02:05:44.804Z,0.00
2022-10-25T02:06:44.767Z,0.00
2022-10-25T02:07:44.763Z,0.00
2022-10-25T02:08:44.746Z,0.00
2022-10-25T02:09:44.743Z,0.00
2022-10-25T02:10:44.729Z,0.00
2022-10-25T02:11:44.750Z,0.00
2022-10-25T02:12:44.941Z,0.00
2022-10-25T02:13:44.695Z,0.00
2022-10-25T02:14:44.686Z,0.00
2022-10-25T02:15:44.675Z,0.00
2022-10-25T02:16:44.687Z,0.00
2022-10-25T02:17:44.659Z,0.00
2022-10-25T02:18:44.637Z,0.00
2022-10-25T02:19:44.632Z,0.00
2022-10-25T02:20:46.711Z,0.00
2022-10-25T02:21:44.627Z,0.00
2022-10-25T02:22:44.852Z,0.00
2022-10-25T02:23:44.589Z,0.00
2022-10-25T02:24:44.575Z,0.00
2022-10-25T02:25:44.565Z,0.00
2022-10-25T02:26:44.617Z,0.00
2022-10-25T02:27:44.861Z,0.00
2022-10-25T02:28:44.527Z,0.00
2022-10-25T02:29:44.519Z,0.00
2022-10-25T02:30:44.507Z,0.00
2022-10-25T02:31:44.520Z,0.00
2022-10-25T02:32:44.509Z,0.00
2022-10-25T02:33:44.480Z,0.00
2022-10-25T02:34:44.468Z,0.00
2022-10-25T02:35:44.457Z,0.00
2022-10-25T02:36:44.460Z,0.00
2022-10-25T02:37:44.582Z,0.00
2022-10-25T02:38:44.421Z,0.00
2022-10-25T02:39:44.409Z,0.00
2022-10-25T02:40:44.400Z,0.00
2022-10-25T02:41:44.388Z,0.00
2022-10-25T02:42:44.392Z,0.00
2022-10-25T02:43:44.372Z,0.00
2022-10-25T02:44:44.351Z,0.00
2022-10-25T02:45:44.340Z,0.00
2022-10-25T02:46:44.370Z,0.00
2022-10-25T02:47:44.456Z,0.00
2022-10-25T02:48:44.307Z,0.00
2022-10-25T02:49:44.303Z,0.00
2022-10-25T02:50:44.294Z,0.00
2022-10-25T02:51:44.318Z,0.00
2022-10-25T02:52:44.571Z,0.00
2022-10-25T02:53:44.253Z,0.00
2022-10-25T02:54:44.278Z,0.00
2022-10-25T02:55:44.235Z,0.00
2022-10-25T02:56:44.226Z,0.00
2022-10-25T02:57:44.233Z,0.00
2022-10-25T02:58:44.203Z,0.00
2022-10-25T02:59:44.192Z,0.00
2022-10-25T03:00:44.218Z,0.00
2022-10-25T03:01:44.190Z,0.00
2022-10-25T03:02:44.359Z,0.00
2022-10-25T03:03:44.144Z,0.00
2022-10-25T03:04:44.133Z,0.00
2022-10-25T03:05:44.133Z,0.00
2022-10-25T03:06:44.113Z,0.00
2022-10-25T03:07:44.103Z,0.00
2022-10-25T03:08:44.114Z,0.00
2022-10-25T03:09:44.086Z,0.00
2022-10-25T03:10:44.073Z,0.00
2022-10-25T03:11:44.056Z,0.00
2022-10-25T03:12:44.292Z,0.00
2022-10-25T03:13:44.063Z,0.00
2022-10-25T03:14:44.024Z,0.00
2022-10-25T03:15:44.013Z,0.00
2022-10-25T03:16:44.061Z,0.00
2022-10-25T03:17:44.134Z,0.00
2022-10-25T03:18:43.997Z,0.00
2022-10-25T03:19:43.996Z,0.00
2022-10-25T03:20:43.955Z,0.00
2022-10-25T03:21:43.947Z,0.00
2022-10-25T03:22:43.936Z,0.00
2022-10-25T03:23:43.926Z,0.00
2022-10-25T03:24:43.947Z,0.00
2022-10-25T03:25:43.907Z,0.00
2022-10-25T03:26:43.888Z,0.00
2022-10-25T03:27:44.106Z,0.00
2022-10-25T03:28:43.867Z,0.00
2022-10-25T03:29:43.867Z,0.00
2022-10-25T03:30:43.866Z,0.00
2022-10-25T03:31:43.846Z,0.00
2022-10-25T03:32:43.818Z,0.00
2022-10-25T03:33:43.821Z,0.00
2022-10-25T03:34:43.805Z,0.00
2022-10-25T03:35:43.822Z,0.00
2022-10-25T03:36:43.779Z,0.00
2022-10-25T03:37:43.883Z,0.00
2022-10-25T03:38:43.759Z,0.00
2022-10-25T03:39:43.749Z,0.00
2022-10-25T03:40:43.759Z,0.00
2022-10-25T03:41:43.732Z,0.00
2022-10-25T03:42:43.721Z,0.00
2022-10-25T03:43:43.709Z,0.00
2022-10-25T03:44:43.699Z,0.00
2022-10-25T03:45:43.734Z,0.00
2022-10-25T03:46:43.678Z,0.00
2022-10-25T03:47:43.768Z,0.00
2022-10-25T03:48:43.649Z,0.00
2022-10-25T03:49:43.639Z,0.00
2022-10-25T03:50:43.662Z,0.00
2022-10-25T03:51:43.622Z,0.00
2022-10-25T03:52:43.601Z,0.00
2022-10-25T03:53:43.609Z,0.00
2022-10-25T03:54:43.584Z,0.00
2022-10-25T03:55:43.572Z,0.00
2022-10-25T03:56:43.582Z,0.00
2022-10-25T03:57:43.600Z,0.00
2022-10-25T03:58:43.564Z,0.00
2022-10-25T03:59:43.532Z,0.00
2022-10-25T04:00:43.561Z,0.00
2022-10-25T04:01:43.628Z,0.00
2022-10-25T04:02:43.493Z,0.00
2022-10-25T04:03:43.490Z,0.00
2022-10-25T04:04:43.473Z,0.00
2022-10-25T04:05:43.472Z,0.00
2022-10-25T04:06:43.453Z,0.00
2022-10-25T04:07:43.518Z,0.00
2022-10-25T04:08:43.430Z,0.00
2022-10-25T04:09:43.425Z,0.00
2022-10-25T04:10:43.413Z,0.00
2022-10-25T04:11:43.402Z,0.00
2022-10-25T04:12:43.461Z,0.00
2022-10-25T04:13:43.375Z,0.00
2022-10-25T04:14:43.366Z,0.00
2022-10-25T04:15:43.361Z,0.00
2022-10-25T04:16:43.345Z,0.00
2022-10-25T04:17:43.402Z,0.00
2022-10-25T04:18:43.346Z,0.00
2022-10-25T04:19:43.314Z,0.00
2022-10-25T04:20:43.323Z,0.00
2022-10-25T04:21:43.295Z,0.00
2022-10-25T04:22:43.277Z,0.00
2022-10-25T04:23:43.266Z,0.00
2022-10-25T04:24:43.278Z,0.00
2022-10-25T04:25:43.275Z,0.00
2022-10-25T04:26:43.236Z,0.00
2022-10-25T04:27:43.235Z,0.00
2022-10-25T04:28:43.227Z,0.00
2022-10-25T04:29:43.209Z,0.00
2022-10-25T04:30:43.208Z,0.00
2022-10-25T04:31:43.238Z,0.00
2022-10-25T04:32:43.167Z,0.00
2022-10-25T04:33:46.583Z,0.00
2022-10-25T04:34:44.157Z,0.00
2022-10-25T04:35:43.138Z,0.00
2022-10-25T04:36:43.146Z,0.00
2022-10-25T04:37:43.111Z,0.00
2022-10-25T04:38:43.097Z,0.00
2022-10-25T04:39:43.116Z,0.00
2022-10-25T04:40:43.081Z,0.00
2022-10-25T04:41:43.069Z,0.00
2022-10-25T04:42:43.062Z,0.00
2022-10-25T04:43:43.051Z,0.00
2022-10-25T04:44:43.061Z,0.00
2022-10-25T04:45:43.029Z,0.00
2022-10-25T04:46:46.354Z,0.00
2022-10-25T04:47:44.003Z,0.00
2022-10-25T04:48:43.010Z,0.00
2022-10-25T04:49:42.980Z,0.00
2022-10-25T04:50:42.968Z,0.00
2022-10-25T04:51:43.018Z,0.00
2022-10-25T04:52:42.942Z,0.00
2022-10-25T04:53:42.940Z,0.00
2022-10-25T04:54:42.959Z,0.00
2022-10-25T04:55:42.911Z,0.00
2022-10-25T04:56:42.900Z,0.00
2022-10-25T04:57:42.898Z,0.00
2022-10-25T04:58:42.880Z,0.00
2022-10-25T04:59:42.871Z,0.00
2022-10-25T05:00:42.882Z,0.00
2022-10-25T05:01:42.955Z,0.00
2022-10-25T05:02:42.904Z,0.00
2022-10-25T05:03:42.822Z,0.00
2022-10-25T05:04:42.823Z,0.00
2022-10-25T05:05:42.803Z,0.00
2022-10-25T05:06:42.821Z,0.00
2022-10-25T05:07:42.792Z,0.00
2022-10-25T05:08:42.772Z,0.00
2022-10-25T05:09:46.556Z,0.00
2022-10-25T05:10:43.754Z,0.00
2022-10-25T05:11:42.762Z,0.00
2022-10-25T05:12:42.733Z,0.00
2022-10-25T05:13:42.717Z,0.00
2022-10-25T05:14:42.716Z,0.00
2022-10-25T05:15:42.695Z,0.00
2022-10-25T05:16:42.706Z,0.00
2022-10-25T05:17:42.678Z,0.00
2022-10-25T05:18:42.663Z,0.00
2022-10-25T05:19:42.652Z,0.00
2022-10-25T05:20:42.642Z,0.00
2022-10-25T05:21:42.644Z,0.00
2022-10-25T05:22:42.625Z,0.00
2022-10-25T05:23:42.637Z,0.00
2022-10-25T05:24:42.604Z,0.00
2022-10-25T05:25:42.584Z,0.00
2022-10-25T05:26:42.596Z,0.00
2022-10-25T05:27:42.565Z,0.00
2022-10-25T05:28:42.555Z,0.00
2022-10-25T05:29:42.560Z,0.00
2022-10-25T05:30:42.527Z,0.00
2022-10-25T05:31:42.536Z,0.00
2022-10-25T05:32:42.536Z,0.00
2022-10-25T05:33:42.528Z,0.00
2022-10-25T05:34:42.564Z,0.00
2022-10-25T05:35:42.475Z,0.00
2022-10-25T05:36:42.496Z,0.00
2022-10-25T05:37:42.457Z,0.00
2022-10-25T05:38:42.447Z,0.00
2022-10-25T05:39:42.436Z,0.00
2022-10-25T05:40:42.430Z,0.00
2022-10-25T05:41:42.427Z,4.00
2022-10-25T05:42:42.429Z,4.00
2022-10-25T05:43:42.395Z,0.00
2022-10-25T05:44:42.379Z,4.00
2022-10-25T05:45:42.370Z,4.00
2022-10-25T05:46:42.378Z,4.00
2022-10-25T05:47:42.340Z,8.00
2022-10-25T05:48:47.270Z,8.00
2022-10-25T05:49:43.327Z,8.00
2022-10-25T05:51:42.319Z,12.00
2022-10-25T05:52:42.294Z,12.00
2022-10-25T05:53:42.278Z,16.00
2022-10-25T05:54:42.269Z,16.00
2022-10-25T05:55:42.260Z,20.00
2022-10-25T05:56:42.272Z,24.00
2022-10-25T05:57:42.258Z,28.00
2022-10-25T05:58:42.227Z,36.00
2022-10-25T05:59:42.210Z,40.00
2022-10-25T06:00:42.204Z,48.00
2022-10-25T06:01:42.337Z,52.00
2022-10-25T06:02:42.202Z,64.00
2022-10-25T06:03:42.170Z,72.00
2022-10-25T06:04:42.161Z,84.00
2022-10-25T06:05:42.171Z,92.00
2022-10-25T06:06:42.160Z,100.00
2022-10-25T06:07:42.125Z,112.00
2022-10-25T06:08:42.192Z,124.00
2022-10-25T06:09:42.212Z,136.00
2022-10-25T06:10:42.125Z,152.00
2022-10-25T06:11:42.102Z,168.00
2022-10-25T06:12:42.362Z,180.00
2022-10-25T06:13:42.111Z,200.00
2022-10-25T06:14:42.164Z,212.00
2022-10-25T06:15:42.103Z,228.00
2022-10-25T06:16:42.038Z,244.00
2022-10-25T06:17:42.570Z,264.00
2022-10-25T06:18:42.457Z,276.00
2022-10-25T06:19:43.093Z,296.00
2022-10-25T06:21:42.122Z,328.00
2022-10-25T06:22:43.104Z,348.00
2022-10-25T06:23:42.241Z,364.00
2022-10-25T06:24:42.509Z,388.00
2022-10-25T06:25:42.404Z,408.00
2022-10-25T06:26:42.515Z,428.00
2022-10-25T06:27:43.315Z,444.00
2022-10-25T06:28:41.955Z,468.00
2022-10-25T06:29:42.002Z,488.00
2022-10-25T06:30:42.065Z,512.00
2022-10-25T06:31:42.115Z,532.00
2022-10-25T06:32:42.223Z,556.00
2022-10-25T06:33:42.227Z,580.00
2022-10-25T06:34:42.613Z,604.00
2022-10-25T06:35:43.273Z,632.00
2022-10-25T06:36:42.350Z,652.00
2022-10-25T06:37:42.615Z,680.00
2022-10-25T06:38:42.299Z,708.00
2022-10-25T06:39:41.939Z,736.00
2022-10-25T06:40:41.766Z,764.00
2022-10-25T06:41:41.766Z,800.00
2022-10-25T06:42:41.878Z,832.00
2022-10-25T06:43:41.774Z,864.00
2022-10-25T06:44:41.807Z,900.00
2022-10-25T06:45:41.756Z,936.00
2022-10-25T06:47:15.510Z,976.00
2022-10-25T06:47:43.723Z,1016.00
2022-10-25T06:48:41.828Z,1048.00
2022-10-25T06:49:41.987Z,1088.00
2022-10-25T06:50:41.992Z,1120.00
2022-10-25T06:51:42.055Z,1156.00
2022-10-25T06:52:42.169Z,1192.00
2022-10-25T06:53:42.423Z,1228.00
2022-10-25T06:54:42.436Z,1272.00
2022-10-25T06:55:42.287Z,1368.00
2022-10-25T06:56:42.244Z,1660.00
2022-10-25T06:57:43.299Z,1816.00
2022-10-25T06:58:50.107Z,1660.00
2022-10-25T06:59:42.512Z,1496.00
2022-10-25T07:00:43.712Z,1452.00
2022-10-25T07:01:41.645Z,1504.00
2022-10-25T07:02:41.604Z,1732.00
2022-10-25T07:03:41.612Z,2116.00
2022-10-25T07:04:42.284Z,1896.00
2022-10-25T07:05:41.612Z,1568.00
2022-10-25T07:06:42.373Z,1380.00
2022-10-25T07:07:42.371Z,1504.00
2022-10-25T07:08:42.307Z,1716.00
2022-10-25T07:09:42.307Z,1976.00
2022-10-25T07:10:41.984Z,1724.00
2022-10-25T07:11:41.830Z,1640.00
2022-10-25T07:12:42.637Z,1708.00
2022-10-25T07:13:41.531Z,1672.00
2022-10-25T07:14:41.392Z,1668.00
2022-10-25T07:15:42.216Z,1688.00
2022-10-25T07:16:41.372Z,1716.00
2022-10-25T07:17:41.380Z,1764.00
2022-10-25T07:18:41.343Z,1816.00
2022-10-25T07:19:41.334Z,1936.00
2022-10-25T07:20:41.324Z,2148.00
2022-10-25T07:21:41.333Z,2324.00
2022-10-25T07:22:41.303Z,2520.00
2022-10-25T07:23:41.295Z,2652.00
2022-10-25T07:24:41.284Z,3464.00
2022-10-25T07:25:41.273Z,3892.00
2022-10-25T07:26:41.384Z,4288.00
2022-10-25T07:27:41.243Z,3800.00
2022-10-25T07:28:41.241Z,3456.00
2022-10-25T07:29:41.223Z,3272.00
2022-10-25T07:30:41.214Z,3356.00
2022-10-25T07:31:41.224Z,3348.00
2022-10-25T07:32:42.457Z,3800.00
2022-10-25T07:33:41.177Z,3748.00
2022-10-25T07:34:41.197Z,3780.00
2022-10-25T07:35:52.304Z,4184.00
2022-10-25T07:36:42.165Z,4224.00
2022-10-25T07:37:41.135Z,4076.00
2022-10-25T07:38:41.149Z,3284.00
2022-10-25T07:39:41.116Z,2992.00
2022-10-25T07:40:41.106Z,2956.00
2022-10-25T07:41:41.123Z,2556.00
2022-10-25T07:42:41.086Z,2240.00
2022-10-25T07:43:41.072Z,2364.00
2022-10-25T07:44:41.123Z,2508.00
2022-10-25T07:45:41.046Z,2704.00
2022-10-25T07:46:41.063Z,3408.00
2022-10-25T07:47:41.026Z,3620.00
2022-10-25T07:48:41.022Z,3716.00
2022-10-25T07:49:41.025Z,3612.00
2022-10-25T07:50:41.014Z,3720.00
2022-10-25T07:51:40.978Z,3704.00
2022-10-25T07:52:40.975Z,3652.00
2022-10-25T07:53:40.970Z,3956.00
2022-10-25T07:54:41.021Z,3604.00
2022-10-25T07:55:40.940Z,3296.00
2022-10-25T07:56:40.956Z,2768.00
2022-10-25T07:57:40.916Z,2780.00
2022-10-25T07:58:40.910Z,2768.00
2022-10-25T07:59:40.889Z,3168.00
2022-10-25T08:00:40.886Z,3760.00
2022-10-25T08:01:40.943Z,4160.00
2022-10-25T08:02:40.923Z,4132.00
2022-10-25T08:03:40.849Z,4348.00
2022-10-25T08:04:40.867Z,4676.00
2022-10-25T08:05:40.835Z,4660.00
2022-10-25T08:06:40.847Z,4416.00
2022-10-25T08:07:40.808Z,3780.00
2022-10-25T08:08:40.800Z,3664.00
2022-10-25T08:09:40.782Z,3328.00
2022-10-25T08:10:40.780Z,2600.00
2022-10-25T08:11:40.764Z,2952.00
2022-10-25T08:12:40.781Z,4020.00
2022-10-25T08:13:40.741Z,2980.00
2022-10-25T08:14:42.366Z,2076.00
2022-10-25T08:15:40.757Z,2132.00
2022-10-25T08:16:40.712Z,2788.00
2022-10-25T08:17:40.700Z,3100.00
2022-10-25T08:18:40.690Z,3860.00
2022-10-25T08:19:40.682Z,4016.00
2022-10-25T08:21:01.364Z,4052.00
2022-10-25T08:21:41.681Z,4024.00
2022-10-25T08:22:40.648Z,4576.00
2022-10-25T08:23:40.632Z,5300.00
2022-10-25T08:24:40.626Z,4088.00
2022-10-25T08:25:40.604Z,5388.00
2022-10-25T08:26:40.625Z,5152.00
2022-10-25T08:27:40.584Z,5152.00
2022-10-25T08:28:40.582Z,4868.00
2022-10-25T08:29:40.563Z,4544.00
2022-10-25T08:30:40.555Z,5004.00
2022-10-25T08:31:40.545Z,5892.00
2022-10-25T08:32:40.555Z,5772.00
2022-10-25T08:33:40.547Z,6328.00
2022-10-25T08:34:40.513Z,7068.00
2022-10-25T08:35:40.502Z,7684.00
2022-10-25T08:36:40.493Z,7884.00
2022-10-25T08:37:40.514Z,5756.00
2022-10-25T08:38:40.466Z,5756.00
2022-10-25T08:39:40.456Z,5780.00
2022-10-25T08:40:40.444Z,5972.00
2022-10-25T08:41:40.433Z,6552.00
2022-10-25T08:42:40.425Z,6948.00
2022-10-25T08:43:40.429Z,6388.00
2022-10-25T08:44:40.403Z,6172.00
2022-10-25T08:45:40.388Z,5916.00
2022-10-25T08:46:40.377Z,5832.00
2022-10-25T08:47:40.367Z,6004.00
2022-10-25T08:48:40.388Z,6156.00
2022-10-25T08:49:40.346Z,6640.00
2022-10-25T08:50:40.337Z,7080.00
2022-10-25T08:51:40.318Z,6816.00
2022-10-25T08:52:40.317Z,7880.00
2022-10-25T08:53:40.355Z,6720.00
2022-10-25T08:54:40.320Z,7420.00
2022-10-25T08:55:44.644Z,7752.00
2022-10-25T08:56:56.471Z,7140.00
2022-10-25T08:57:41.257Z,7444.00
2022-10-25T08:58:40.249Z,6812.00
2022-10-25T08:59:40.257Z,6856.00
2022-10-25T09:00:40.228Z,7568.00
2022-10-25T09:01:40.410Z,7176.00
2022-10-25T09:02:40.201Z,6800.00
2022-10-25T09:04:40.208Z,6332.00
2022-10-25T09:05:40.193Z,6692.00
2022-10-25T09:06:40.159Z,6744.00
2022-10-25T09:07:42.090Z,6864.00
2022-10-25T09:08:40.142Z,6728.00
2022-10-25T09:09:40.151Z,6536.00
2022-10-25T09:10:40.120Z,6324.00
2022-10-25T09:11:40.102Z,6508.00
2022-10-25T09:12:40.103Z,6552.00
2022-10-25T09:13:40.110Z,6644.00
2022-10-25T09:14:40.102Z,6728.00
2022-10-25T09:15:42.881Z,5480.00
2022-10-25T09:16:40.044Z,5172.00
2022-10-25T09:17:40.047Z,4996.00
2022-10-25T09:18:40.024Z,5240.00
2022-10-25T09:19:40.015Z,5044.00
2022-10-25T09:20:40.025Z,4808.00
2022-10-25T09:21:39.994Z,5152.00
2022-10-25T09:22:40.003Z,5148.00
2022-10-25T09:23:39.981Z,4764.00
2022-10-25T09:24:39.964Z,4668.00
2022-10-25T09:25:39.973Z,3888.00
2022-10-25T09:26:39.943Z,3160.00
2022-10-25T09:27:39.936Z,4140.00
2022-10-25T09:28:39.915Z,6464.00
2022-10-25T09:29:39.917Z,6356.00
2022-10-25T09:30:39.894Z,6180.00
2022-10-25T09:31:39.913Z,6404.00
2022-10-25T09:32:39.879Z,6692.00
2022-10-25T09:33:39.867Z,7144.00
2022-10-25T09:34:39.847Z,6696.00
2022-10-25T09:35:39.849Z,7056.00
2022-10-25T09:36:39.839Z,7012.00
2022-10-25T09:37:39.845Z,6060.00
2022-10-25T09:38:39.809Z,5748.00
2022-10-25T09:39:39.835Z,6544.00
2022-10-25T09:40:45.212Z,7568.00
2022-10-25T09:41:40.779Z,7796.00
2022-10-25T09:42:39.786Z,8572.00
2022-10-25T09:43:39.757Z,8884.00
2022-10-25T09:44:39.738Z,8708.00
2022-10-25T09:45:41.296Z,9004.00
2022-10-25T09:46:39.720Z,8904.00
2022-10-25T09:47:39.720Z,8068.00
2022-10-25T09:48:39.697Z,8360.00
2022-10-25T09:49:39.688Z,7040.00
2022-10-25T09:50:39.697Z,7712.00
2022-10-25T09:51:39.669Z,6780.00
2022-10-25T09:52:39.679Z,6688.00
2022-10-25T09:53:39.651Z,5788.00
2022-10-25T09:54:39.629Z,6040.00
2022-10-25T09:55:39.620Z,4572.00
2022-10-25T09:56:39.609Z,4668.00
2022-10-25T09:57:39.610Z,5492.00
2022-10-25T09:58:39.610Z,4760.00
2022-10-25T09:59:39.597Z,5760.00
2022-10-25T10:00:39.596Z,6056.00
2022-10-25T10:01:39.664Z,5440.00
2022-10-25T10:02:39.595Z,5168.00
2022-10-25T10:03:39.538Z,5192.00
2022-10-25T10:04:39.534Z,5280.00
2022-10-25T10:05:39.532Z,5488.00
2022-10-25T10:06:39.500Z,6028.00
2022-10-25T10:07:39.520Z,4940.00
2022-10-25T10:08:39.473Z,4664.00
2022-10-25T10:09:44.830Z,5468.00
2022-10-25T10:10:40.491Z,6548.00
2022-10-25T10:11:39.449Z,7188.00
2022-10-25T10:12:39.440Z,6852.00
2022-10-25T10:13:39.423Z,6416.00
2022-10-25T10:14:39.414Z,6548.00
2022-10-25T10:15:39.404Z,7844.00
2022-10-25T10:16:39.412Z,7836.00
2022-10-25T10:17:39.384Z,8380.00
2022-10-25T10:18:39.384Z,8248.00
2022-10-25T10:19:39.364Z,7336.00
2022-10-25T10:20:39.346Z,8000.00
2022-10-25T10:21:39.365Z,10084.00
2022-10-25T10:22:39.387Z,10568.00
2022-10-25T10:23:39.318Z,12896.00
2022-10-25T10:24:39.313Z,10820.00
2022-10-25T10:25:39.296Z,10804.00
2022-10-25T10:26:39.290Z,12176.00
2022-10-25T10:27:39.298Z,12532.00
2022-10-25T10:28:39.282Z,14276.00
2022-10-25T10:29:39.248Z,14752.00
2022-10-25T10:30:39.236Z,9816.00
2022-10-25T10:31:39.258Z,9448.00
2022-10-25T10:33:39.228Z,10544.00
2022-10-25T10:34:39.197Z,14320.00
2022-10-25T10:35:39.187Z,8044.00
2022-10-25T10:36:39.177Z,11264.00
2022-10-25T10:37:39.166Z,10344.00
2022-10-25T10:38:39.169Z,10132.00
2022-10-25T10:39:39.138Z,13056.00
2022-10-25T10:40:39.142Z,12320.00
2022-10-25T10:41:39.137Z,10868.00
2022-10-25T10:42:39.136Z,10496.00
2022-10-25T10:43:39.121Z,9828.00
2022-10-25T10:44:39.088Z,8984.00
2022-10-25T10:45:39.115Z,8536.00
2022-10-25T10:46:39.060Z,8564.00
2022-10-25T10:47:39.052Z,8012.00
2022-10-25T10:48:42.050Z,6120.00
2022-10-25T10:49:39.058Z,5876.00
2022-10-25T10:50:41.526Z,5228.00
2022-10-25T10:51:44.122Z,5436.00
2022-10-25T10:52:40.001Z,5704.00
2022-10-25T10:53:38.989Z,6244.00
2022-10-25T10:54:38.972Z,6824.00
2022-10-25T10:55:38.990Z,8864.00
2022-10-25T10:56:38.951Z,10180.00
2022-10-25T10:57:38.942Z,10028.00
2022-10-25T10:58:38.931Z,7764.00
2022-10-25T10:59:38.930Z,9452.00
2022-10-25T11:00:38.913Z,10036.00
2022-10-25T11:01:38.976Z,9332.00
2022-10-25T11:02:39.078Z,9180.00
2022-10-25T11:03:42.434Z,9996.00
2022-10-25T11:04:39.892Z,9268.00
2022-10-25T11:05:38.854Z,9088.00
2022-10-25T11:06:38.873Z,9692.00
2022-10-25T11:07:38.834Z,12340.00
2022-10-25T11:08:38.826Z,14624.00
2022-10-25T11:09:38.824Z,16896.00
2022-10-25T11:10:38.827Z,18880.00
2022-10-25T11:11:38.814Z,13184.00
2022-10-25T11:12:41.190Z,11400.00
2022-10-25T11:13:38.776Z,11372.00
2022-10-25T11:14:38.756Z,17248.00
2022-10-25T11:15:38.775Z,8984.00
2022-10-25T11:16:38.738Z,6508.00
2022-10-25T11:17:38.725Z,6144.00
2022-10-25T11:18:38.715Z,7964.00
2022-10-25T11:19:38.706Z,12004.00
2022-10-25T11:20:38.716Z,12700.00
2022-10-25T11:21:38.677Z,18176.00
2022-10-25T11:22:38.781Z,13692.00
2022-10-25T11:23:38.659Z,13448.00
2022-10-25T11:24:38.647Z,11404.00
2022-10-25T11:25:38.640Z,11940.00
2022-10-25T11:26:38.649Z,12920.00
2022-10-25T11:27:38.618Z,13856.00
2022-10-25T11:28:38.615Z,12928.00
2022-10-25T11:29:38.600Z,20896.00
2022-10-25T11:30:38.579Z,27808.00
2022-10-25T11:31:38.601Z,26144.00
2022-10-25T11:32:38.559Z,24960.00
2022-10-25T11:33:38.550Z,14436.00
2022-10-25T11:34:38.539Z,12912.00
2022-10-25T11:35:38.529Z,24128.00
2022-10-25T11:36:38.521Z,22880.00
2022-10-25T11:37:38.532Z,14920.00
2022-10-25T11:38:38.492Z,14852.00
2022-10-25T11:39:38.482Z,16832.00
2022-10-25T11:40:38.471Z,12956.00
2022-10-25T11:41:38.471Z,8572.00
2022-10-25T11:42:38.474Z,18976.00
2022-10-25T11:43:38.442Z,25088.00
2022-10-25T11:44:40.711Z,10508.00
2022-10-25T11:45:38.422Z,23200.00
2022-10-25T11:46:38.403Z,12652.00
2022-10-25T11:47:43.045Z,26560.00
2022-10-25T11:48:39.382Z,14140.00
2022-10-25T11:49:38.388Z,12892.00
2022-10-25T11:50:38.364Z,12920.00
2022-10-25T11:51:38.352Z,12412.00
2022-10-25T11:52:38.364Z,12056.00
2022-10-25T11:53:38.333Z,15388.00
2022-10-25T11:54:38.315Z,9724.00
2022-10-25T11:55:38.315Z,10064.00
2022-10-25T11:56:38.317Z,11696.00
2022-10-25T11:57:38.287Z,16008.00
2022-10-25T11:58:38.297Z,18176.00
2022-10-25T11:59:38.267Z,17440.00
2022-10-25T12:00:38.256Z,13524.00
2022-10-25T12:01:38.332Z,19296.00
2022-10-25T12:02:38.274Z,19392.00
2022-10-25T12:03:38.246Z,9760.00
2022-10-25T12:04:38.210Z,8676.00
2022-10-25T12:05:38.201Z,10288.00
2022-10-25T12:06:38.190Z,18528.00
2022-10-25T12:07:38.209Z,20896.00
2022-10-25T12:08:38.167Z,21376.00
2022-10-25T12:09:38.158Z,11744.00
2022-10-25T12:10:38.188Z,11928.00
2022-10-25T12:11:38.160Z,9752.00
2022-10-25T12:12:38.120Z,12020.00
2022-10-25T12:13:38.130Z,12588.00
2022-10-25T12:14:38.099Z,15208.00
2022-10-25T12:15:38.096Z,19968.00
2022-10-25T12:16:38.080Z,15996.00
2022-10-25T12:17:38.069Z,23552.00
2022-10-25T12:18:38.062Z,25824.00
2022-10-25T12:19:38.075Z,25728.00
2022-10-25T12:20:38.118Z,23872.00
2022-10-25T12:21:38.032Z,24000.00
2022-10-25T12:22:38.014Z,22176.00
2022-10-25T12:23:38.003Z,22496.00
2022-10-25T12:24:38.012Z,23456.00
2022-10-25T12:25:37.981Z,23232.00
2022-10-25T12:26:37.970Z,22528.00
2022-10-25T12:27:37.962Z,18656.00
2022-10-25T12:28:37.944Z,18528.00
2022-10-25T12:29:37.947Z,21856.00
2022-10-25T12:30:37.943Z,10884.00
2022-10-25T12:31:37.914Z,12184.00
2022-10-25T12:32:37.904Z,11980.00
2022-10-25T12:33:37.917Z,10624.00
2022-10-25T12:34:37.907Z,10980.00
2022-10-25T12:35:40.073Z,11704.00
2022-10-25T12:36:37.865Z,13216.00
2022-10-25T12:37:37.856Z,15472.00
2022-10-25T12:38:37.838Z,15104.00
2022-10-25T12:39:37.846Z,13416.00
2022-10-25T12:40:40.489Z,11600.00
2022-10-25T12:41:37.815Z,12588.00